createdAt,value
2023-11-12T00:00:00.978Z,6.93
2023-11-12T00:10:09.016Z,8.98
2023-11-12T00:15:14.531Z,5.90
2023-11-12T00:20:18.372Z,6.90
2023-11-12T00:25:22.285Z,7.28
2023-11-12T00:30:27.663Z,8.25
2023-11-12T00:40:34.318Z,6.20
2023-11-12T00:45:40.151Z,6.82
2023-11-12T00:50:43.897Z,6.05
2023-11-12T00:55:47.892Z,6.47
2023-11-12T01:00:53.276Z,5.30
2023-11-12T01:05:56.987Z,7.53
2023-11-12T01:11:01.090Z,5.82
2023-11-12T01:16:07.022Z,5.63
2023-11-12T01:21:10.875Z,5.65
2023-11-12T01:26:14.648Z,4.45
2023-11-12T01:31:21.004Z,6.63
2023-11-12T01:36:24.725Z,7.10
2023-11-12T01:41:28.579Z,7.22
2023-11-12T01:46:35.569Z,4.28
2023-11-12T01:51:39.968Z,6.25
2023-11-12T01:56:43.958Z,5.93
2023-11-12T02:01:50.459Z,5.63
2023-11-12T02:06:54.184Z,6.70
2023-11-12T02:11:58.394Z,5.38
2023-11-12T02:17:03.725Z,7.50
2023-11-12T02:22:07.643Z,4.45
2023-11-12T02:27:13.051Z,4.88
2023-11-12T02:32:16.873Z,5.03
2023-11-12T02:37:20.600Z,4.68
2023-11-12T02:42:26.025Z,5.63
2023-11-12T02:47:29.787Z,7.35
2023-11-12T02:52:33.668Z,6.32
2023-11-12T02:57:39.099Z,5.25
2023-11-12T03:02:43.009Z,6.07
2023-11-12T03:07:46.734Z,8.10
2023-11-12T03:12:53.207Z,6.68
2023-11-12T03:17:56.959Z,10.18
2023-11-12T03:23:00.680Z,5.63
2023-11-12T03:28:06.281Z,6.07
2023-11-12T03:33:10.204Z,5.88
2023-11-12T03:38:14.032Z,4.82
2023-11-12T03:43:19.490Z,5.35
2023-11-12T03:48:24.797Z,5.93
2023-11-12T03:53:28.500Z,5.88
2023-11-12T03:58:33.863Z,6.30
2023-11-12T04:03:37.831Z,8.23
2023-11-12T04:08:41.763Z,5.05
2023-11-12T04:13:48.140Z,5.55
2023-11-12T04:18:52.090Z,6.85
2023-11-12T04:23:55.789Z,7.35
2023-11-12T04:29:01.109Z,7.30
2023-11-12T04:34:05.622Z,5.67
2023-11-12T04:39:09.327Z,6.68
2023-11-12T04:44:14.722Z,6.00
2023-11-12T04:49:18.467Z,4.88
2023-11-12T04:54:22.254Z,5.22
2023-11-12T04:59:27.617Z,6.63
2023-11-12T05:04:31.316Z,5.77
2023-11-12T05:09:35.276Z,5.70
2023-11-12T05:14:40.702Z,6.30
2023-11-12T05:19:45.378Z,5.63
2023-11-12T05:24:50.356Z,4.22
2023-11-12T05:29:55.770Z,6.57
2023-11-12T05:34:59.572Z,3.90
2023-11-12T05:40:03.308Z,7.57
2023-11-12T05:45:09.707Z,5.05
2023-11-12T05:50:13.441Z,4.68
2023-11-12T05:55:17.310Z,5.18
2023-11-12T06:00:23.022Z,6.50
2023-11-12T06:05:26.769Z,10.18
2023-11-12T06:10:31.151Z,4.43
2023-11-12T06:15:36.545Z,6.32
2023-11-12T06:20:40.262Z,4.67
2023-11-12T06:25:44.006Z,5.07
2023-11-12T06:30:50.629Z,6.70
2023-11-12T06:35:54.432Z,5.55
2023-11-12T06:40:58.121Z,4.60
2023-11-12T06:46:05.473Z,4.50
2023-11-12T06:51:09.175Z,5.70
2023-11-12T06:56:12.839Z,4.85
2023-11-12T07:01:18.215Z,5.10
2023-11-12T07:06:22.006Z,4.63
2023-11-12T07:11:25.750Z,4.60
2023-11-12T07:16:31.159Z,4.57
2023-11-12T07:21:34.890Z,5.00
2023-11-12T07:26:38.585Z,6.40
2023-11-12T07:31:44.662Z,5.03
2023-11-12T07:41:51.306Z,3.88
2023-11-12T07:46:56.803Z,5.10
2023-11-12T07:52:00.649Z,4.63
2023-11-12T07:57:04.559Z,4.80
2023-11-12T08:02:09.907Z,5.68
2023-11-12T08:07:13.780Z,4.67
2023-11-12T08:12:17.653Z,6.63
2023-11-12T08:17:23.102Z,5.50
2023-11-12T08:22:26.822Z,4.40
2023-11-12T08:27:30.548Z,5.43
2023-11-12T08:32:36.005Z,4.82
2023-11-12T08:37:39.810Z,6.53
2023-11-12T08:42:43.569Z,6.00
2023-11-12T08:47:48.955Z,4.35
2023-11-12T08:52:52.652Z,10.50
2023-11-12T08:57:56.432Z,4.35
2023-11-12T09:03:02.883Z,4.03
2023-11-12T09:08:07.497Z,5.00
2023-11-12T09:13:11.277Z,6.68
2023-11-12T09:18:16.627Z,4.93
2023-11-12T09:23:20.311Z,5.17
2023-11-12T09:28:24.052Z,4.93
2023-11-12T09:33:29.497Z,5.85
2023-11-12T09:38:36.367Z,9.87
2023-11-12T09:43:40.095Z,5.28
2023-11-12T09:48:45.649Z,5.25
2023-11-12T09:53:49.507Z,7.63
2023-11-12T09:58:53.227Z,4.35
2023-11-12T10:03:58.704Z,4.72
2023-11-12T10:09:02.480Z,4.90
2023-11-12T10:14:15.502Z,4.88
2023-11-12T10:19:20.853Z,5.20
2023-11-12T10:24:24.927Z,6.23
2023-11-12T10:29:28.708Z,4.85
2023-11-12T10:34:34.227Z,7.63
2023-11-12T10:39:40.207Z,5.67
2023-11-12T10:44:47.556Z,7.22
2023-11-12T10:49:53.635Z,4.18
2023-11-12T10:54:58.928Z,7.15
2023-11-12T11:00:05.426Z,6.93
2023-11-12T11:05:11.271Z,5.90
2023-11-12T11:10:15.177Z,5.30
2023-11-12T11:15:41.276Z,5.75
2023-11-12T11:21:13.954Z,5.68
2023-11-12T11:26:35.676Z,7.28
2023-11-12T11:31:40.319Z,5.88
2023-11-12T11:36:58.724Z,6.40
2023-11-12T11:42:18.637Z,5.93
2023-11-12T11:47:23.336Z,6.05
2023-11-12T11:52:29.824Z,6.10
2023-11-12T11:57:33.925Z,6.63
2023-11-12T12:02:44.710Z,7.05
2023-11-12T12:08:01.463Z,6.18
2023-11-12T12:13:08.486Z,6.85
2023-11-12T12:18:21.831Z,7.05
2023-11-12T12:23:27.841Z,5.38
2023-11-12T12:28:32.579Z,5.70
2023-11-12T12:33:36.785Z,9.60
2023-11-12T12:38:57.624Z,7.53
2023-11-12T12:44:01.510Z,8.02
2023-11-12T12:49:05.332Z,6.53
2023-11-12T12:54:11.749Z,7.18
2023-11-12T12:59:15.493Z,7.60
2023-11-12T13:04:19.271Z,6.65
2023-11-12T13:09:24.639Z,5.38
2023-11-12T13:14:28.407Z,8.83
2023-11-12T13:19:32.153Z,9.98
2023-11-12T13:24:37.531Z,7.28
2023-11-12T13:29:41.970Z,8.57
2023-11-12T13:34:45.661Z,8.02
2023-11-12T13:39:52.112Z,7.53
2023-11-12T13:44:56.344Z,6.90
2023-11-12T13:50:00.167Z,7.00
2023-11-12T13:55:06.055Z,9.60
2023-11-12T14:00:11.049Z,7.80
2023-11-12T14:05:14.792Z,7.75
2023-11-12T14:10:20.220Z,6.72
2023-11-12T14:15:24.067Z,10.90
2023-11-12T14:20:27.939Z,8.40
2023-11-12T14:25:33.323Z,7.32
2023-11-12T14:30:37.060Z,10.60
2023-11-12T14:35:40.783Z,8.93
2023-11-12T14:40:46.319Z,8.60
2023-11-12T14:45:50.250Z,9.33
2023-11-12T14:50:54.128Z,10.32
2023-11-12T14:55:59.581Z,10.25
2023-11-12T15:01:03.309Z,7.30
2023-11-12T15:06:07.460Z,7.22
2023-11-12T15:11:13.404Z,7.70
2023-11-12T15:16:20.339Z,9.90
2023-11-12T15:21:24.295Z,8.48
2023-11-12T15:26:29.753Z,9.70
2023-11-12T15:31:33.513Z,7.83
2023-11-12T15:36:37.270Z,8.95
2023-11-12T15:41:42.753Z,8.73
2023-11-12T15:46:46.542Z,10.53
2023-11-12T15:51:50.345Z,6.88
2023-11-12T15:56:56.684Z,7.32
2023-11-12T16:02:00.380Z,7.72
2023-11-12T16:07:04.211Z,8.85
2023-11-12T16:12:10.511Z,8.85
2023-11-12T16:17:14.327Z,7.95
2023-11-12T16:22:18.676Z,8.98
2023-11-12T16:27:24.073Z,10.95
2023-11-12T16:32:28.727Z,8.30
2023-11-12T16:37:32.969Z,10.80
2023-11-12T16:42:38.377Z,9.57
2023-11-12T16:47:42.306Z,8.07
2023-11-12T16:52:47.017Z,12.65
2023-11-12T16:57:52.767Z,13.65
2023-11-12T17:02:56.657Z,8.00
2023-11-12T17:08:01.504Z,11.95
2023-11-12T17:13:06.968Z,10.93
2023-11-12T17:18:10.792Z,15.45
2023-11-12T17:23:14.575Z,10.50
2023-11-12T17:28:19.939Z,9.02
2023-11-12T17:33:23.669Z,14.43
2023-11-12T17:38:27.358Z,13.77
2023-11-12T17:43:33.009Z,17.63
2023-11-12T17:53:41.388Z,16.30
2023-11-12T17:58:46.841Z,17.38
2023-11-12T18:03:50.720Z,17.38
2023-11-12T18:08:54.602Z,20.52
2023-11-12T18:13:59.962Z,18.95
2023-11-12T18:19:03.663Z,18.13
2023-11-12T18:24:07.853Z,16.50
2023-11-12T18:29:13.266Z,19.40
2023-11-12T18:34:17.017Z,20.83
2023-11-12T18:39:20.791Z,22.77
2023-11-12T18:44:28.352Z,25.15
2023-11-12T18:49:32.083Z,11.02
2023-11-12T18:54:35.828Z,15.05
2023-11-12T18:59:41.521Z,20.13
2023-11-12T19:04:45.356Z,16.08
2023-11-12T19:09:49.091Z,13.50
2023-11-12T19:14:55.624Z,20.65
2023-11-12T19:19:59.367Z,13.25
2023-11-12T19:25:03.184Z,15.02
2023-11-12T19:30:15.165Z,14.18
2023-11-12T19:35:20.382Z,16.83
2023-11-12T19:40:24.285Z,15.88
2023-11-12T19:45:30.651Z,16.13
2023-11-12T19:50:34.417Z,13.95
2023-11-12T19:55:38.123Z,16.08
2023-11-12T20:00:43.491Z,16.13
2023-11-12T20:10:50.609Z,14.18
2023-11-12T20:15:56.092Z,15.02
2023-11-12T20:20:59.843Z,19.10
2023-11-12T20:26:04.033Z,19.77
2023-11-12T20:31:09.629Z,19.15
2023-11-12T20:36:13.398Z,15.38
2023-11-12T20:41:17.110Z,24.08
2023-11-12T20:46:22.558Z,18.90
2023-11-12T20:51:26.388Z,15.07
2023-11-12T20:56:30.087Z,18.25
2023-11-12T21:01:39.101Z,16.83
2023-11-12T21:06:43.620Z,16.33
2023-11-12T21:11:49.094Z,15.70
2023-11-12T21:16:54.762Z,15.05
2023-11-12T21:21:58.585Z,14.95
2023-11-12T21:27:02.290Z,13.07
2023-11-12T21:32:08.266Z,17.05
2023-11-12T21:37:12.016Z,18.80
2023-11-12T21:42:15.738Z,13.82
2023-11-12T21:47:21.907Z,18.23
2023-11-12T21:52:25.625Z,13.65
2023-11-12T21:57:29.322Z,14.63
2023-11-12T22:02:34.685Z,13.73
2023-11-12T22:12:41.382Z,11.23
2023-11-12T22:17:47.795Z,13.80
2023-11-12T22:22:51.531Z,10.60
2023-11-12T22:27:55.253Z,12.48
2023-11-12T22:33:01.681Z,12.57
2023-11-12T22:38:05.391Z,11.77
2023-11-12T22:43:09.126Z,8.75
2023-11-12T22:48:14.506Z,12.65
2023-11-12T22:58:21.321Z,9.02
2023-11-12T23:03:28.180Z,8.50
2023-11-12T23:08:31.944Z,8.65
2023-11-12T23:13:35.693Z,6.82
2023-11-12T23:18:41.044Z,7.55
2023-11-12T23:28:48.534Z,10.57
2023-11-12T23:33:54.007Z,10.07
2023-11-12T23:38:57.898Z,7.70
2023-11-12T23:44:01.807Z,9.10
2023-11-12T23:49:07.272Z,7.88
2023-11-12T23:59:14.060Z,6.72
